createdAt,value
2017-10-02T00:01:14.169Z,3.70
2017-10-02T00:03:41.760Z,5.17
2017-10-02T00:06:09.275Z,4.60
2017-10-02T00:08:37.215Z,9.27
2017-10-02T00:11:05.500Z,3.73
2017-10-02T00:13:33.047Z,7.20
2017-10-02T00:16:01.340Z,4.67
2017-10-02T00:18:28.878Z,5.60
2017-10-02T00:20:57.153Z,6.07
2017-10-02T00:23:25.508Z,9.07
2017-10-02T00:25:53.072Z,5.47
2017-10-02T00:28:20.564Z,6.63
2017-10-02T00:30:48.087Z,8.17
2017-10-02T00:33:15.644Z,6.47
2017-10-02T00:35:43.480Z,5.70
2017-10-02T00:38:10.993Z,6.93
2017-10-02T00:40:39.312Z,7.20
2017-10-02T00:43:06.839Z,5.37
2017-10-02T00:45:34.340Z,5.13
2017-10-02T00:48:01.865Z,8.48
2017-10-02T00:50:29.385Z,6.70
2017-10-02T00:52:56.915Z,5.83
2017-10-02T00:55:24.467Z,6.00
2017-10-02T00:57:51.966Z,5.33
2017-10-02T01:00:19.483Z,7.00
2017-10-02T01:02:47.015Z,5.57
2017-10-02T01:05:14.525Z,4.60
2017-10-02T01:07:42.022Z,4.97
2017-10-02T01:10:09.805Z,5.10
2017-10-02T01:12:37.521Z,8.20
2017-10-02T01:15:05.021Z,5.20
2017-10-02T01:17:33.378Z,4.63
2017-10-02T01:20:01.753Z,5.50
2017-10-02T01:22:30.043Z,4.77
2017-10-02T01:24:57.573Z,5.03
2017-10-02T01:27:25.089Z,4.80
2017-10-02T01:29:52.596Z,5.30
2017-10-02T01:32:20.153Z,5.60
2017-10-02T01:34:47.888Z,3.27
2017-10-02T01:37:15.388Z,3.83
2017-10-02T01:39:43.707Z,3.50
2017-10-02T01:42:11.223Z,4.10
2017-10-02T01:44:39.580Z,4.73
2017-10-02T01:47:07.148Z,3.70
2017-10-02T01:49:34.664Z,6.10
2017-10-02T01:52:02.166Z,5.23
2017-10-02T01:54:29.697Z,5.63
2017-10-02T01:56:57.979Z,4.93
2017-10-02T01:59:25.552Z,5.57
2017-10-02T02:01:53.075Z,4.37
2017-10-02T02:04:20.595Z,5.20
2017-10-02T02:06:48.873Z,6.73
2017-10-02T02:09:17.165Z,6.20
2017-10-02T02:11:44.688Z,6.60
2017-10-02T02:14:12.736Z,6.97
2017-10-02T02:16:40.269Z,6.03
2017-10-02T02:19:07.760Z,5.97
2017-10-02T02:21:35.908Z,7.30
2017-10-02T02:24:03.572Z,9.13
2017-10-02T02:26:31.893Z,7.37
2017-10-02T02:28:59.467Z,7.43
2017-10-02T02:31:28.072Z,7.30
2017-10-02T02:33:55.596Z,8.30
2017-10-02T02:36:23.109Z,10.27
2017-10-02T02:38:50.628Z,8.50
2017-10-02T02:41:18.905Z,9.03
2017-10-02T02:43:46.447Z,11.30
2017-10-02T02:46:13.999Z,9.77
2017-10-02T02:48:41.517Z,11.97
2017-10-02T02:51:09.046Z,9.80
2017-10-02T02:53:37.332Z,10.30
2017-10-02T02:56:04.863Z,10.73
2017-10-02T02:58:32.370Z,13.00
2017-10-02T03:00:59.896Z,9.73
2017-10-02T03:03:28.181Z,10.90
2017-10-02T03:05:56.445Z,10.13
2017-10-02T03:08:24.765Z,10.83
2017-10-02T03:10:52.296Z,10.90
2017-10-02T03:13:19.805Z,10.87
2017-10-02T03:15:47.352Z,12.67
2017-10-02T03:18:15.671Z,11.70
2017-10-02T03:20:43.227Z,12.07
2017-10-02T03:23:10.783Z,11.77
2017-10-02T03:25:38.323Z,11.63
2017-10-02T03:28:05.823Z,14.10
2017-10-02T03:30:34.163Z,13.13
2017-10-02T03:33:01.680Z,11.63
2017-10-02T03:35:29.196Z,11.97
2017-10-02T03:37:57.495Z,13.03
2017-10-02T03:40:25.811Z,13.30
2017-10-02T03:42:53.982Z,13.43
2017-10-02T03:45:21.515Z,14.53
2017-10-02T03:47:49.044Z,12.67
2017-10-02T03:50:17.375Z,13.00
2017-10-02T03:52:45.173Z,12.97
2017-10-02T03:55:12.699Z,11.93
2017-10-02T03:57:41.297Z,13.93
2017-10-02T04:00:09.083Z,14.67
2017-10-02T04:02:36.609Z,12.70
2017-10-02T04:05:04.140Z,12.47
2017-10-02T04:07:31.668Z,12.60
2017-10-02T04:09:59.185Z,13.30
2017-10-02T04:12:26.726Z,12.67
2017-10-02T04:14:54.280Z,12.00
2017-10-02T04:17:21.815Z,12.70
2017-10-02T04:19:50.112Z,11.53
2017-10-02T04:22:17.659Z,11.63
2017-10-02T04:24:45.196Z,12.47
2017-10-02T04:27:12.698Z,12.73
2017-10-02T04:29:40.247Z,10.63
2017-10-02T04:32:07.760Z,11.00
2017-10-02T04:34:35.503Z,9.87
2017-10-02T04:37:03.044Z,8.50
2017-10-02T04:39:30.555Z,9.60
2017-10-02T04:41:58.075Z,8.73
2017-10-02T04:44:25.615Z,8.07
2017-10-02T04:46:53.557Z,8.83
2017-10-02T04:49:22.156Z,9.00
2017-10-02T04:51:51.053Z,8.37
2017-10-02T04:54:18.565Z,7.90
2017-10-02T04:56:46.064Z,7.77
2017-10-02T04:59:14.358Z,7.00
2017-10-02T05:01:41.871Z,7.87
2017-10-02T05:04:10.668Z,9.03
2017-10-02T05:06:38.315Z,9.27
2017-10-02T05:09:05.822Z,9.43
2017-10-02T05:11:33.324Z,9.30
2017-10-02T05:14:00.847Z,10.50
2017-10-02T05:16:28.359Z,9.50
2017-10-02T05:18:56.755Z,10.20
2017-10-02T05:21:25.053Z,10.07
2017-10-02T05:23:52.575Z,9.83
2017-10-02T05:26:20.083Z,10.70
2017-10-02T05:28:48.388Z,9.50
2017-10-02T05:31:15.901Z,7.83
2017-10-02T05:33:43.430Z,10.30
2017-10-02T05:36:10.988Z,5.87
2017-10-02T05:38:38.494Z,14.67
2017-10-02T05:41:06.001Z,15.07
2017-10-02T05:43:33.654Z,11.97
2017-10-02T05:46:01.160Z,13.27
2017-10-02T05:48:28.685Z,16.47
2017-10-02T05:50:56.243Z,11.50
2017-10-02T05:53:23.744Z,8.30
2017-10-02T05:55:51.266Z,17.62
2017-10-02T05:58:19.240Z,18.30
2017-10-02T06:00:47.043Z,12.63
2017-10-02T06:03:14.557Z,30.83
2017-10-02T06:05:42.077Z,13.93
2017-10-02T06:08:09.677Z,10.60
2017-10-02T06:10:37.944Z,13.00
2017-10-02T06:13:05.482Z,17.83
2017-10-02T06:15:33.009Z,17.50
2017-10-02T06:18:00.538Z,13.13
2017-10-02T06:20:28.859Z,18.80
2017-10-02T06:22:56.370Z,17.13
2017-10-02T06:25:23.919Z,17.50
2017-10-02T06:27:51.808Z,16.00
2017-10-02T06:30:19.389Z,14.63
2017-10-02T06:32:46.918Z,17.80
2017-10-02T06:35:14.475Z,15.67
2017-10-02T06:37:42.033Z,20.87
2017-10-02T06:40:09.542Z,21.27
2017-10-02T06:42:37.074Z,17.60
2017-10-02T06:45:04.576Z,18.60
2017-10-02T06:47:32.092Z,16.27
2017-10-02T06:49:59.640Z,15.50
2017-10-02T06:52:27.942Z,9.80
2017-10-02T06:54:55.995Z,18.17
2017-10-02T06:57:24.311Z,31.83
2017-10-02T06:59:51.950Z,21.30
2017-10-02T07:02:19.493Z,14.73
2017-10-02T07:04:47.799Z,15.73
2017-10-02T07:07:15.357Z,15.37
2017-10-02T07:09:43.185Z,22.03
2017-10-02T07:12:11.136Z,17.60
2017-10-02T07:14:38.770Z,24.93
2017-10-02T07:17:06.582Z,18.50
2017-10-02T07:19:34.181Z,19.23
2017-10-02T07:22:01.716Z,19.23
2017-10-02T07:24:29.468Z,16.40
2017-10-02T07:26:57.795Z,15.73
2017-10-02T07:29:25.959Z,15.93
2017-10-02T07:31:53.498Z,22.80
2017-10-02T07:34:22.334Z,20.53
2017-10-02T07:36:49.868Z,23.20
2017-10-02T07:39:17.399Z,18.07
2017-10-02T07:41:44.961Z,18.10
2017-10-02T07:44:12.487Z,21.53
2017-10-02T07:46:40.007Z,26.90
2017-10-02T07:49:07.742Z,19.40
2017-10-02T07:51:35.263Z,25.13
2017-10-02T07:54:02.769Z,24.83
2017-10-02T07:56:30.464Z,25.50
2017-10-02T07:58:58.000Z,18.30
2017-10-02T08:01:25.517Z,19.23
2017-10-02T08:03:53.816Z,19.10
2017-10-02T08:06:21.400Z,18.87
2017-10-02T08:08:48.926Z,20.57
2017-10-02T08:11:17.248Z,24.60
2017-10-02T08:13:44.763Z,20.47
2017-10-02T08:16:13.049Z,21.37
2017-10-02T08:18:40.603Z,18.47
2017-10-02T08:21:08.996Z,20.30
2017-10-02T08:23:36.642Z,27.17
2017-10-02T08:26:05.124Z,23.40
2017-10-02T08:28:32.699Z,29.57
2017-10-02T08:31:00.216Z,29.33
2017-10-02T08:33:28.107Z,28.00
2017-10-02T08:35:56.590Z,28.67
2017-10-02T08:38:24.912Z,36.97
2017-10-02T08:40:52.473Z,23.50
2017-10-02T08:43:20.928Z,29.10
2017-10-02T08:45:48.446Z,27.53
2017-10-02T08:48:16.736Z,23.53
2017-10-02T08:50:45.041Z,25.33
2017-10-02T08:53:12.698Z,27.33
2017-10-02T08:55:40.256Z,24.90
2017-10-02T08:58:07.807Z,30.10
2017-10-02T09:00:35.335Z,24.53
2017-10-02T09:03:03.324Z,22.60
2017-10-02T09:05:31.655Z,29.00
2017-10-02T09:07:59.182Z,23.27
2017-10-02T09:10:26.704Z,30.57
2017-10-02T09:12:54.263Z,37.17
2017-10-02T09:15:22.021Z,21.87
2017-10-02T09:17:49.552Z,29.90
2017-10-02T09:20:17.113Z,31.97
2017-10-02T09:22:44.680Z,34.10
2017-10-02T09:25:12.324Z,33.07
2017-10-02T09:27:39.858Z,26.83
2017-10-02T09:30:07.394Z,28.07
2017-10-02T09:32:35.819Z,31.67
2017-10-02T09:35:03.403Z,32.90
2017-10-02T09:37:31.262Z,27.27
2017-10-02T09:39:58.912Z,33.00
2017-10-02T09:42:26.452Z,25.63
2017-10-02T09:44:53.980Z,25.83
2017-10-02T09:47:22.265Z,17.97
2017-10-02T09:49:50.612Z,30.47
2017-10-02T09:52:19.848Z,28.80
2017-10-02T09:54:48.452Z,24.13
2017-10-02T09:57:16.147Z,25.20
2017-10-02T09:59:43.650Z,32.20
2017-10-02T10:02:11.927Z,24.53
2017-10-02T10:04:40.480Z,33.23
2017-10-02T10:07:08.000Z,30.43
2017-10-02T10:09:36.131Z,29.47
2017-10-02T10:12:04.013Z,31.33
2017-10-02T10:14:32.411Z,29.33
2017-10-02T10:16:59.954Z,28.23
2017-10-02T10:19:27.632Z,24.90
2017-10-02T10:21:55.192Z,22.53
2017-10-02T10:24:22.711Z,27.10
2017-10-02T10:26:50.252Z,25.83
2017-10-02T10:29:18.984Z,24.00
2017-10-02T10:31:47.299Z,28.07
2017-10-02T10:34:14.849Z,22.33
2017-10-02T10:36:43.177Z,21.27
2017-10-02T10:39:11.769Z,20.40
2017-10-02T10:41:39.473Z,27.93
2017-10-02T10:44:06.981Z,26.73
2017-10-02T10:46:34.503Z,25.20
2017-10-02T10:49:02.345Z,27.60
2017-10-02T10:51:30.126Z,26.30
2017-10-02T10:53:57.656Z,24.83
2017-10-02T10:56:25.200Z,22.33
2017-10-02T10:58:53.555Z,27.90
2017-10-02T11:01:21.072Z,24.63
2017-10-02T11:03:48.779Z,30.50
2017-10-02T11:06:16.399Z,26.53
2017-10-02T11:08:45.189Z,27.20
2017-10-02T11:11:12.723Z,28.10
2017-10-02T11:13:41.662Z,28.27
2017-10-02T11:16:10.347Z,36.80
2017-10-02T11:18:38.396Z,23.63
2017-10-02T11:21:06.221Z,36.13
2017-10-02T11:23:34.585Z,19.13
2017-10-02T11:26:03.777Z,19.10
2017-10-02T11:28:31.606Z,17.90
2017-10-02T11:30:59.109Z,21.83
2017-10-02T11:33:26.663Z,22.90
2017-10-02T11:35:54.195Z,31.70
2017-10-02T11:38:21.706Z,21.20
2017-10-02T11:40:50.022Z,22.97
2017-10-02T11:43:18.333Z,26.47
2017-10-02T11:45:45.872Z,22.17
2017-10-02T11:48:13.534Z,23.03
2017-10-02T11:50:41.126Z,17.43
2017-10-02T11:53:08.639Z,23.67
2017-10-02T11:55:36.653Z,26.63
2017-10-02T11:58:04.896Z,24.37
2017-10-02T12:00:32.449Z,22.07
2017-10-02T12:03:05.035Z,25.40
2017-10-02T12:05:38.190Z,28.47
2017-10-02T12:08:05.863Z,22.40
2017-10-02T12:10:33.438Z,24.90
2017-10-02T12:13:01.328Z,20.90
2017-10-02T12:15:28.911Z,20.83
2017-10-02T12:17:56.440Z,31.57
2017-10-02T12:20:23.954Z,20.00
2017-10-02T12:22:52.258Z,22.10
2017-10-02T12:25:19.839Z,29.73
2017-10-02T12:27:47.359Z,22.13
2017-10-02T12:30:14.901Z,20.77
2017-10-02T12:32:43.196Z,19.33
2017-10-02T12:35:10.735Z,18.00
2017-10-02T12:37:39.064Z,17.47
2017-10-02T12:40:06.614Z,20.30
2017-10-02T12:42:34.140Z,22.00
2017-10-02T12:45:01.697Z,29.10
2017-10-02T12:47:29.984Z,24.67
2017-10-02T12:49:57.481Z,27.53
2017-10-02T12:52:25.028Z,27.27
2017-10-02T12:54:52.538Z,21.80
2017-10-02T12:57:20.860Z,23.03
2017-10-02T12:59:49.309Z,22.33
2017-10-02T13:02:17.204Z,21.10
2017-10-02T13:04:44.875Z,20.03
2017-10-02T13:07:12.419Z,24.17
2017-10-02T13:09:39.956Z,28.63
2017-10-02T13:12:08.239Z,15.10
2017-10-02T13:14:35.780Z,23.90
2017-10-02T13:17:04.294Z,22.33
2017-10-02T13:19:31.889Z,16.67
2017-10-02T13:21:59.413Z,20.80
2017-10-02T13:24:26.940Z,25.53
2017-10-02T13:26:54.450Z,21.43
2017-10-02T13:29:21.968Z,21.00
2017-10-02T13:31:49.858Z,19.87
2017-10-02T13:34:17.420Z,22.70
2017-10-02T13:36:45.792Z,24.57
2017-10-02T13:39:14.872Z,22.27
2017-10-02T13:41:43.176Z,27.53
2017-10-02T13:44:10.736Z,16.43
2017-10-02T13:46:38.240Z,23.20
2017-10-02T13:49:05.743Z,15.10
2017-10-02T13:51:33.289Z,18.80
2017-10-02T13:54:01.575Z,19.90
2017-10-02T13:56:29.105Z,18.17
2017-10-02T13:58:57.441Z,23.87
2017-10-02T14:01:24.957Z,20.60
2017-10-02T14:03:53.282Z,20.10
2017-10-02T14:06:20.855Z,23.67
2017-10-02T14:08:48.468Z,22.77
2017-10-02T14:11:16.747Z,29.73
2017-10-02T14:13:44.265Z,20.47
2017-10-02T14:16:11.770Z,21.37
2017-10-02T14:18:39.305Z,23.53
2017-10-02T14:21:07.068Z,21.43
2017-10-02T14:23:34.605Z,19.10
2017-10-02T14:26:03.521Z,21.03
2017-10-02T14:28:31.845Z,23.83
2017-10-02T14:30:59.666Z,15.77
2017-10-02T14:33:27.952Z,19.13
2017-10-02T14:35:56.446Z,18.73
2017-10-02T14:38:23.968Z,33.57
2017-10-02T14:40:51.493Z,24.70
2017-10-02T14:43:19.033Z,20.60
2017-10-02T14:45:46.545Z,21.23
2017-10-02T14:48:14.072Z,26.17
2017-10-02T14:50:41.592Z,18.57
2017-10-02T14:53:09.105Z,32.73
2017-10-02T14:55:36.629Z,18.17
2017-10-02T14:58:04.184Z,20.00
2017-10-02T15:00:31.696Z,19.60
2017-10-02T15:02:59.188Z,20.20
2017-10-02T15:05:26.728Z,17.70
2017-10-02T15:07:55.036Z,15.80
2017-10-02T15:10:23.596Z,23.07
2017-10-02T15:12:51.946Z,21.87
2017-10-02T15:15:19.448Z,22.23
2017-10-02T15:17:46.953Z,26.57
2017-10-02T15:20:14.502Z,25.73
2017-10-02T15:22:42.346Z,26.47
2017-10-02T15:25:11.264Z,20.50
2017-10-02T15:27:38.880Z,16.03
2017-10-02T15:30:06.399Z,20.10
2017-10-02T15:32:33.923Z,25.73
2017-10-02T15:35:01.820Z,25.33
2017-10-02T15:37:29.381Z,20.97
2017-10-02T15:39:56.903Z,21.23
2017-10-02T15:42:24.448Z,18.70
2017-10-02T15:44:52.889Z,27.77
2017-10-02T15:47:20.445Z,15.53
2017-10-02T15:49:48.532Z,26.43
2017-10-02T15:52:18.389Z,17.03
2017-10-02T15:54:45.904Z,21.17
2017-10-02T15:57:14.225Z,19.83
2017-10-02T15:59:41.785Z,25.77
2017-10-02T16:02:09.341Z,22.97
2017-10-02T16:04:36.868Z,29.40
2017-10-02T16:07:05.144Z,22.90
2017-10-02T16:09:33.562Z,29.60
2017-10-02T16:12:01.136Z,23.77
2017-10-02T16:14:28.684Z,23.87
2017-10-02T16:16:56.183Z,27.07
2017-10-02T16:19:24.338Z,26.70
2017-10-02T16:21:52.811Z,18.90
2017-10-02T16:24:20.768Z,27.17
2017-10-02T16:26:48.300Z,18.77
2017-10-02T16:29:16.949Z,19.70
2017-10-02T16:31:44.533Z,20.80
2017-10-02T16:34:12.863Z,24.93
2017-10-02T16:36:40.404Z,23.13
2017-10-02T16:39:07.993Z,29.03
2017-10-02T16:41:35.536Z,21.20
2017-10-02T16:44:03.099Z,22.33
2017-10-02T16:46:33.149Z,33.83
2017-10-02T16:49:00.776Z,25.20
2017-10-02T16:51:28.342Z,22.33
2017-10-02T16:53:55.900Z,29.60
2017-10-02T16:56:23.442Z,26.17
2017-10-02T16:58:50.963Z,19.40
2017-10-02T17:01:19.253Z,23.50
2017-10-02T17:03:46.892Z,26.20
2017-10-02T17:06:15.196Z,26.27
2017-10-02T17:08:42.816Z,27.80
2017-10-02T17:11:10.457Z,29.07
2017-10-02T17:13:37.979Z,30.73
2017-10-02T17:16:05.656Z,29.17
2017-10-02T17:18:33.197Z,27.83
2017-10-02T17:21:00.732Z,30.77
2017-10-02T17:23:29.078Z,24.37
2017-10-02T17:25:56.684Z,30.50
2017-10-02T17:28:24.294Z,30.03
2017-10-02T17:30:52.604Z,33.53
2017-10-02T17:33:20.153Z,33.93
2017-10-02T17:35:47.690Z,28.67
2017-10-02T17:38:15.233Z,30.53
2017-10-02T17:40:42.772Z,31.83
2017-10-02T17:43:10.351Z,34.50
2017-10-02T17:45:38.136Z,35.90
2017-10-02T17:48:05.675Z,30.10
2017-10-02T17:50:33.219Z,30.57
2017-10-02T17:53:00.762Z,31.53
2017-10-02T17:55:29.736Z,31.00
2017-10-02T17:57:57.368Z,28.17
2017-10-02T18:00:24.956Z,25.40
2017-10-02T18:02:52.500Z,29.33
2017-10-02T18:05:20.030Z,25.47
2017-10-02T18:07:47.577Z,39.13
2017-10-02T18:10:15.095Z,31.47
2017-10-02T18:12:42.632Z,31.30
2017-10-02T18:15:10.316Z,25.13
2017-10-02T18:17:37.824Z,28.80
2017-10-02T18:20:05.334Z,33.07
2017-10-02T18:22:33.793Z,32.43
2017-10-02T18:25:01.412Z,33.70
2017-10-02T18:27:28.955Z,36.60
2017-10-02T18:29:57.252Z,33.37
2017-10-02T18:32:24.979Z,23.33
2017-10-02T18:34:52.638Z,30.70
2017-10-02T18:37:20.268Z,35.03
2017-10-02T18:39:47.835Z,28.80
2017-10-02T18:42:15.375Z,30.93
2017-10-02T18:44:42.945Z,26.30
2017-10-02T18:47:10.481Z,30.63
2017-10-02T18:49:37.985Z,38.37
2017-10-02T18:52:05.490Z,31.60
2017-10-02T18:54:33.787Z,30.20
2017-10-02T18:57:01.296Z,29.70
2017-10-02T18:59:28.928Z,42.67
2017-10-02T19:01:56.472Z,30.00
2017-10-02T19:04:24.232Z,31.43
2017-10-02T19:06:51.808Z,33.87
2017-10-02T19:09:19.376Z,31.23
2017-10-02T19:11:47.904Z,32.00
2017-10-02T19:14:15.425Z,37.67
2017-10-02T19:16:42.948Z,29.33
2017-10-02T19:19:10.485Z,30.27
2017-10-02T19:21:38.051Z,31.63
2017-10-02T19:24:05.703Z,38.70
2017-10-02T19:26:33.327Z,34.43
2017-10-02T19:29:00.906Z,31.50
2017-10-02T19:31:29.283Z,32.33
2017-10-02T19:33:58.056Z,37.03
2017-10-02T19:36:25.579Z,39.37
2017-10-02T19:38:53.299Z,47.10
2017-10-02T19:41:21.652Z,42.07
2017-10-02T19:43:49.388Z,37.87
2017-10-02T19:46:16.966Z,45.33
2017-10-02T19:48:44.507Z,44.20
2017-10-02T19:51:12.880Z,58.57
2017-10-02T19:53:40.419Z,40.87
2017-10-02T19:56:07.983Z,42.70
2017-10-02T19:58:35.518Z,48.33
2017-10-02T20:01:04.164Z,53.37
2017-10-02T20:03:33.173Z,54.07
2017-10-02T20:06:01.991Z,65.33
2017-10-02T20:08:29.927Z,56.10
2017-10-02T20:10:57.606Z,60.93
2017-10-02T20:13:25.363Z,59.57
2017-10-02T20:15:53.022Z,57.83
2017-10-02T20:18:21.026Z,64.67
2017-10-02T20:20:49.090Z,60.10
2017-10-02T20:23:17.514Z,57.80
2017-10-02T20:25:45.132Z,52.90
2017-10-02T20:28:12.810Z,64.30
2017-10-02T20:30:40.978Z,61.60
2017-10-02T20:33:09.028Z,68.50
2017-10-02T20:35:36.759Z,65.47
2017-10-02T20:38:04.421Z,54.90
2017-10-02T20:40:32.084Z,48.93
2017-10-02T20:43:00.009Z,59.40
2017-10-02T20:45:28.234Z,50.50
2017-10-02T20:47:55.796Z,54.80
2017-10-02T20:50:23.346Z,55.43
2017-10-02T20:52:50.921Z,65.13
2017-10-02T20:55:19.951Z,58.33
2017-10-02T20:57:47.473Z,59.83
2017-10-02T21:00:15.228Z,56.07
2017-10-02T21:02:42.764Z,71.03
2017-10-02T21:05:10.705Z,60.17
2017-10-02T21:07:38.978Z,50.80
2017-10-02T21:10:07.412Z,67.10
2017-10-02T21:12:36.339Z,57.83
2017-10-02T21:15:04.862Z,45.90
2017-10-02T21:17:32.808Z,45.60
2017-10-02T21:20:01.366Z,51.90
2017-10-02T21:22:29.117Z,69.87
2017-10-02T21:24:58.078Z,53.27
2017-10-02T21:27:35.780Z,64.73
2017-10-02T21:30:04.350Z,62.37
2017-10-02T21:32:33.197Z,57.97
2017-10-02T21:35:00.920Z,63.87
2017-10-02T21:37:28.443Z,70.20
2017-10-02T21:39:55.982Z,59.60
2017-10-02T21:42:24.320Z,45.93
2017-10-02T21:44:51.860Z,56.77
2017-10-02T21:47:24.741Z,54.83
2017-10-02T21:49:52.279Z,53.87
2017-10-02T21:52:19.808Z,46.57
2017-10-02T21:54:48.467Z,56.10
2017-10-02T21:57:17.730Z,52.00
2017-10-02T21:59:47.402Z,49.80
2017-10-02T22:02:18.084Z,52.90
2017-10-02T22:04:46.312Z,54.30
2017-10-02T22:07:14.112Z,43.33
2017-10-02T22:09:41.637Z,51.27
2017-10-02T22:12:09.162Z,40.70
2017-10-02T22:14:37.713Z,39.95
2017-10-02T22:17:05.268Z,51.10
2017-10-02T22:19:32.829Z,32.00
2017-10-02T22:22:02.062Z,40.10
2017-10-02T22:24:30.856Z,45.23
2017-10-02T22:26:58.610Z,37.70
2017-10-02T22:29:26.167Z,38.75
2017-10-02T22:31:53.715Z,40.53
2017-10-02T22:34:21.245Z,39.28
2017-10-02T22:36:49.518Z,37.63
2017-10-02T22:39:18.128Z,49.90
2017-10-02T22:41:46.093Z,35.30
2017-10-02T22:44:13.652Z,42.58
2017-10-02T22:46:42.102Z,45.47
2017-10-02T22:49:10.686Z,41.03
2017-10-02T22:51:42.409Z,34.07
2017-10-02T22:54:12.269Z,39.58
2017-10-02T22:56:40.014Z,47.55
2017-10-02T22:59:08.909Z,64.15
2017-10-02T23:01:37.256Z,44.50
2017-10-02T23:04:07.213Z,39.30
2017-10-02T23:06:35.526Z,36.53
2017-10-02T23:09:03.680Z,45.47
2017-10-02T23:11:33.824Z,40.00
2017-10-02T23:14:03.965Z,43.60
2017-10-02T23:16:32.315Z,43.53
2017-10-02T23:19:00.504Z,41.03
2017-10-02T23:21:28.305Z,37.27
2017-10-02T23:23:56.237Z,38.88
2017-10-02T23:26:25.522Z,40.90
2017-10-02T23:28:54.253Z,30.87
2017-10-02T23:31:21.788Z,36.78
2017-10-02T23:33:49.336Z,31.70
2017-10-02T23:36:16.899Z,27.03
2017-10-02T23:38:44.427Z,31.50
2017-10-02T23:41:12.735Z,30.37
2017-10-02T23:43:40.367Z,34.08
2017-10-02T23:46:08.685Z,26.55
2017-10-02T23:48:37.269Z,39.00
2017-10-02T23:51:05.137Z,29.97
2017-10-02T23:53:32.653Z,27.80
2017-10-02T23:56:00.181Z,34.60
2017-10-02T23:58:27.747Z,29.05
